Time;durP1;ratioP1;P1;durP2;ratioP2;P2;SDS_P1;SDS_P2;PMS_P1;PMS_P2;Temp;Humidity;BMP_temperature;BMP_pressure;BME280_temperature;BME280_humidity;BME280_pressure;Samples;Min_cycle;Max_cycle;Signal;HPM_P1;HPM_P2
2021/10/14 00:01:13;;;;;;;0.10;0.10;;;7.40;99.90;;;;;;5053184;28;20024;-78
2021/10/14 00:03:42;;;;;;;0.00;0.00;;;7.40;99.90;;;;;;5052900;28;20055;-77
2021/10/14 00:06:11;;;;;;;0.00;0.00;;;7.30;99.90;;;;;;5053513;28;20102;-79
2021/10/14 00:08:37;;;;;;;1.95;0.55;;;7.40;99.90;;;;;;5053167;28;20165;-77
2021/10/14 00:11:03;;;;;;;0.22;0.22;;;7.30;99.90;;;;;;5053081;28;20437;-78
2021/10/14 00:13:29;;;;;;;0.00;0.00;;;7.30;99.90;;;;;;5052976;28;20053;-78
2021/10/14 00:15:55;;;;;;;0.32;0.30;;;7.20;99.90;;;;;;5052099;28;20443;-78
2021/10/14 00:18:20;;;;;;;0.00;0.00;;;7.20;99.90;;;;;;5053082;28;20021;-78
2021/10/14 00:20:46;;;;;;;0.00;0.00;;;7.10;99.90;;;;;;5053068;28;20039;-77
2021/10/14 00:23:12;;;;;;;0.00;0.00;;;7.10;99.90;;;;;;5053075;28;20052;-78
2021/10/14 00:25:39;;;;;;;0.00;0.00;;;7.10;99.90;;;;;;5052860;28;20575;-77
2021/10/14 00:28:05;;;;;;;0.08;0.08;;;7.10;99.90;;;;;;5053080;28;20095;-78
2021/10/14 00:30:31;;;;;;;0.00;0.00;;;7.00;99.90;;;;;;5053181;28;20496;-78
2021/10/14 00:32:57;;;;;;;0.00;0.00;;;7.00;99.90;;;;;;5052816;28;20055;-77
2021/10/14 00:35:22;;;;;;;0.03;0.03;;;7.00;99.90;;;;;;5051500;28;20071;-78
2021/10/14 00:37:48;;;;;;;0.30;0.10;;;6.90;99.90;;;;;;5052855;28;20147;-78
2021/10/14 00:40:16;;;;;;;0.00;0.00;;;6.90;99.90;;;;;;5052827;28;20496;-78
2021/10/14 00:42:45;;;;;;;0.00;0.00;;;6.90;99.90;;;;;;5052883;28;20078;-78
2021/10/14 00:45:12;;;;;;;0.00;0.00;;;6.80;99.90;;;;;;5052677;28;20115;-78
2021/10/14 00:47:40;;;;;;;0.10;0.10;;;6.80;99.90;;;;;;5052653;28;20040;-77
2021/10/14 00:50:08;;;;;;;0.00;0.00;;;6.80;99.90;;;;;;5052754;28;20031;-78
2021/10/14 00:52:36;;;;;;;0.57;0.52;;;6.80;99.90;;;;;;5052176;28;20025;-78
2021/10/14 00:55:03;;;;;;;0.10;0.10;;;6.80;99.90;;;;;;5052586;28;20017;-77
2021/10/14 00:57:29;;;;;;;0.00;0.00;;;6.80;99.90;;;;;;5052258;28;20021;-78
2021/10/14 00:59:55;;;;;;;0.00;0.00;;;6.80;99.90;;;;;;5052315;28;20511;-77
2021/10/14 01:02:21;;;;;;;1.13;0.98;;;6.80;99.90;;;;;;5052354;28;20547;-78
2021/10/14 01:04:46;;;;;;;0.00;0.00;;;6.80;99.90;;;;;;5052046;28;20112;-78
2021/10/14 01:07:12;;;;;;;0.10;0.10;;;6.70;99.90;;;;;;5051024;28;20037;-78
2021/10/14 01:09:40;;;;;;;0.28;0.28;;;6.70;99.90;;;;;;5055529;28;20025;-79
2021/10/14 01:12:07;;;;;;;0.00;0.00;;;6.60;99.90;;;;;;5054857;28;20021;-79
2021/10/14 01:14:33;;;;;;;0.00;0.00;;;6.60;99.90;;;;;;5055456;28;20044;-78
2021/10/14 01:17:00;;;;;;;0.00;0.00;;;6.60;99.90;;;;;;5055858;28;20029;-77
2021/10/14 01:19:27;;;;;;;0.00;0.00;;;6.60;99.90;;;;;;5056709;28;20032;-78
2021/10/14 01:21:53;;;;;;;0.00;0.00;;;6.50;99.90;;;;;;5056259;28;20071;-77
2021/10/14 01:24:20;;;;;;;0.10;0.10;;;6.50;99.90;;;;;;5056113;28;20069;-78
2021/10/14 01:26:45;;;;;;;0.08;0.08;;;6.50;99.90;;;;;;5056281;28;20087;-78
2021/10/14 01:29:11;;;;;;;2.28;1.33;;;6.50;99.90;;;;;;5056182;28;20033;-78
2021/10/14 01:31:38;;;;;;;0.00;0.00;;;6.40;99.90;;;;;;5056337;28;20052;-77
2021/10/14 01:34:04;;;;;;;1.45;1.30;;;6.40;99.90;;;;;;5056098;28;20504;-78
2021/10/14 01:36:30;;;;;;;0.00;0.00;;;6.40;99.90;;;;;;5056229;28;20029;-79
2021/10/14 01:38:55;;;;;;;0.10;0.10;;;6.30;99.90;;;;;;5055797;28;20373;-77
2021/10/14 01:41:21;;;;;;;0.10;0.10;;;6.30;99.90;;;;;;5055729;28;20025;-78
2021/10/14 01:43:47;;;;;;;0.15;0.15;;;6.30;99.90;;;;;;5055913;28;20025;-77
2021/10/14 01:46:13;;;;;;;0.22;0.22;;;6.30;99.90;;;;;;5055944;28;20488;-78
2021/10/14 01:48:39;;;;;;;2.40;0.57;;;6.20;99.90;;;;;;5055813;28;20115;-78
2021/10/14 01:51:08;;;;;;;0.00;0.00;;;6.20;99.90;;;;;;5056032;28;20119;-79
2021/10/14 01:53:33;;;;;;;0.00;0.00;;;6.20;99.90;;;;;;5055704;28;20039;-78
2021/10/14 01:55:59;;;;;;;0.00;0.00;;;6.20;99.90;;;;;;5055557;28;20451;-78
2021/10/14 01:58:24;;;;;;;0.00;0.00;;;6.10;99.90;;;;;;5055692;28;20067;-78
2021/10/14 02:00:51;;;;;;;1.05;0.47;;;6.10;99.90;;;;;;5055367;28;20392;-78
2021/10/14 02:03:17;;;;;;;0.40;0.20;;;6.10;99.90;;;;;;5055767;28;20028;-78
2021/10/14 02:05:43;;;;;;;0.00;0.00;;;6.10;99.90;;;;;;5054896;28;20022;-77
2021/10/14 02:08:09;;;;;;;0.00;0.00;;;6.10;99.90;;;;;;5054759;28;20086;-78
2021/10/14 02:10:35;;;;;;;0.00;0.00;;;6.10;99.90;;;;;;5055363;28;20112;-78
2021/10/14 02:13:01;;;;;;;0.00;0.00;;;6.10;99.90;;;;;;5054401;28;20040;-77
2021/10/14 02:15:27;;;;;;;0.00;0.00;;;6.10;99.90;;;;;;5055635;28;20029;-78
2021/10/14 02:17:53;;;;;;;0.08;0.08;;;6.10;99.90;;;;;;5055182;28;20389;-77
2021/10/14 02:20:19;;;;;;;0.25;0.25;;;6.00;99.90;;;;;;5053901;28;20021;-78
2021/10/14 02:22:45;;;;;;;0.00;0.00;;;5.90;99.90;;;;;;5055161;28;20029;-78
2021/10/14 02:25:12;;;;;;;0.00;0.00;;;6.00;99.90;;;;;;5055232;28;20140;-79
2021/10/14 02:27:38;;;;;;;0.00;0.00;;;5.90;99.90;;;;;;5054892;28;20053;-78
2021/10/14 02:30:07;;;;;;;0.00;0.00;;;5.90;99.90;;;;;;5055141;28;20405;-77
2021/10/14 02:32:33;;;;;;;0.00;0.00;;;5.90;99.90;;;;;;5055029;28;20071;-78
2021/10/14 02:34:59;;;;;;;0.00;0.00;;;5.90;99.90;;;;;;5055126;28;20063;-78
2021/10/14 02:37:26;;;;;;;0.00;0.00;;;5.80;99.90;;;;;;5055244;28;20048;-78
2021/10/14 02:39:52;;;;;;;0.00;0.00;;;5.80;99.90;;;;;;5054938;28;20051;-78
2021/10/14 02:42:18;;;;;;;0.00;0.00;;;5.80;99.90;;;;;;5054990;28;20083;-79
2021/10/14 02:44:43;;;;;;;0.00;0.00;;;5.80;99.90;;;;;;5054960;28;20035;-78
2021/10/14 02:47:09;;;;;;;0.00;0.00;;;5.70;99.90;;;;;;5054858;28;20072;-78
2021/10/14 02:49:35;;;;;;;0.00;0.00;;;5.70;99.90;;;;;;5054738;28;20024;-78
2021/10/14 02:52:01;;;;;;;0.80;0.73;;;5.70;99.90;;;;;;5054368;28;20052;-78
2021/10/14 02:54:27;;;;;;;0.10;0.10;;;5.60;99.90;;;;;;5054848;28;20025;-78
2021/10/14 02:56:52;;;;;;;2.05;1.90;;;5.60;99.90;;;;;;5034683;28;20493;-77
2021/10/14 02:59:18;;;;;;;0.10;0.10;;;5.70;99.90;;;;;;5034508;28;20013;-77
2021/10/14 03:01:44;;;;;;;0.17;0.17;;;5.70;99.90;;;;;;5034590;28;20480;-78
2021/10/14 03:04:10;;;;;;;0.00;0.00;;;5.70;99.90;;;;;;5034639;28;20397;-78
2021/10/14 03:06:35;;;;;;;0.00;0.00;;;5.70;99.90;;;;;;5034223;28;20398;-78
2021/10/14 03:09:01;;;;;;;0.63;0.10;;;5.70;99.90;;;;;;5034335;28;20108;-77
2021/10/14 03:11:26;;;;;;;0.00;0.00;;;5.70;99.90;;;;;;5034487;28;20101;-78
2021/10/14 03:13:52;;;;;;;0.00;0.00;;;5.70;99.90;;;;;;5032679;28;20409;-78
2021/10/14 03:16:18;;;;;;;0.00;0.00;;;5.70;99.90;;;;;;5035350;28;20074;-78
2021/10/14 03:18:43;;;;;;;0.00;0.00;;;5.70;99.90;;;;;;5054405;28;20067;-78
2021/10/14 03:21:09;;;;;;;0.00;0.00;;;5.70;99.90;;;;;;5054297;28;20072;-77
2021/10/14 03:23:35;;;;;;;0.05;0.05;;;5.70;99.90;;;;;;5054399;28;20075;-79
2021/10/14 03:26:04;;;;;;;0.00;0.00;;;5.70;99.90;;;;;;5053654;28;20052;-77
2021/10/14 03:28:30;;;;;;;0.00;0.00;;;5.70;99.90;;;;;;5054057;28;20107;-78
2021/10/14 03:30:57;;;;;;;0.00;0.00;;;5.60;99.90;;;;;;5053763;28;20013;-77
2021/10/14 03:33:22;;;;;;;0.00;0.00;;;5.60;99.90;;;;;;5053573;28;20440;-78
2021/10/14 03:35:48;;;;;;;0.10;0.10;;;5.60;99.90;;;;;;5052714;28;20112;-78
2021/10/14 03:38:14;;;;;;;0.00;0.00;;;5.60;99.90;;;;;;5053713;28;20033;-78
2021/10/14 03:40:39;;;;;;;1.30;0.85;;;5.60;99.90;;;;;;5053681;28;20021;-78
2021/10/14 03:43:05;;;;;;;0.00;0.00;;;5.60;99.90;;;;;;5053765;28;20497;-78
2021/10/14 03:45:31;;;;;;;3.53;1.73;;;5.60;99.90;;;;;;5053582;28;20082;-78
2021/10/14 03:47:56;;;;;;;0.00;0.00;;;5.50;99.90;;;;;;5053628;28;20159;-77
2021/10/14 03:50:22;;;;;;;0.00;0.00;;;5.50;99.90;;;;;;5052171;28;20025;-78
2021/10/14 03:52:48;;;;;;;0.00;0.00;;;5.50;99.90;;;;;;5053595;28;20040;-78
2021/10/14 03:55:14;;;;;;;0.00;0.00;;;5.50;99.90;;;;;;5053511;28;20637;-78
2021/10/14 03:57:40;;;;;;;1.30;0.38;;;5.50;99.90;;;;;;5053582;28;20032;-77
2021/10/14 04:00:07;;;;;;;0.00;0.00;;;5.40;99.90;;;;;;5053338;28;20028;-78
2021/10/14 04:02:32;;;;;;;0.10;0.10;;;5.40;99.90;;;;;;5053672;28;20025;-78
2021/10/14 04:04:58;;;;;;;0.00;0.00;;;5.40;99.90;;;;;;5053307;28;20028;-78
2021/10/14 04:07:24;;;;;;;0.00;0.00;;;5.40;99.90;;;;;;5052277;28;20033;-78
2021/10/14 04:09:49;;;;;;;1.20;0.35;;;5.40;99.90;;;;;;5052806;28;20036;-79
2021/10/14 04:12:15;;;;;;;0.10;0.10;;;5.30;99.90;;;;;;5052972;28;20029;-77
2021/10/14 04:14:41;;;;;;;0.00;0.00;;;5.30;99.90;;;;;;5053292;28;20020;-78
2021/10/14 04:17:07;;;;;;;0.05;0.05;;;5.30;99.90;;;;;;5051930;28;20021;-76
2021/10/14 04:19:33;;;;;;;0.55;0.30;;;5.30;99.90;;;;;;5052727;28;20484;-78
2021/10/14 04:21:58;;;;;;;0.22;0.22;;;5.30;99.90;;;;;;5053126;28;20021;-77
2021/10/14 04:24:26;;;;;;;0.00;0.00;;;5.30;99.90;;;;;;5052682;28;20125;-78
2021/10/14 04:26:52;;;;;;;0.75;0.43;;;5.30;99.90;;;;;;5051805;28;20074;-78
2021/10/14 04:29:18;;;;;;;2.53;1.35;;;5.30;99.90;;;;;;5052911;28;20052;-79
2021/10/14 04:31:45;;;;;;;0.20;0.20;;;5.20;99.90;;;;;;5052848;28;20110;-78
2021/10/14 04:34:10;;;;;;;0.00;0.00;;;5.20;99.90;;;;;;5052617;28;20158;-79
2021/10/14 04:36:37;;;;;;;0.10;0.10;;;5.20;99.90;;;;;;5053037;28;20458;-78
2021/10/14 04:39:05;;;;;;;0.00;0.00;;;5.20;99.90;;;;;;5052804;28;20148;-78
2021/10/14 04:41:31;;;;;;;0.38;0.28;;;5.20;99.90;;;;;;5052866;28;20498;-78
2021/10/14 04:43:57;;;;;;;0.10;0.10;;;5.20;99.90;;;;;;5051843;28;20092;-78
2021/10/14 04:46:22;;;;;;;0.00;0.00;;;5.20;99.90;;;;;;5052891;28;20029;-77
2021/10/14 04:48:48;;;;;;;0.00;0.00;;;5.20;99.90;;;;;;5052666;28;20100;-78
2021/10/14 04:51:14;;;;;;;0.00;0.00;;;5.20;99.90;;;;;;5052716;28;20488;-78
2021/10/14 04:53:40;;;;;;;0.00;0.00;;;5.20;99.90;;;;;;5052819;28;20391;-77
2021/10/14 04:56:05;;;;;;;0.00;0.00;;;5.20;99.90;;;;;;5052517;28;20029;-78
2021/10/14 04:58:31;;;;;;;0.30;0.30;;;5.20;99.90;;;;;;5052732;28;20096;-78
2021/10/14 05:00:57;;;;;;;0.00;0.00;;;5.20;99.90;;;;;;5051876;28;20028;-78
2021/10/14 05:03:23;;;;;;;0.15;0.15;;;5.30;99.90;;;;;;5052302;28;20052;-78
2021/10/14 05:05:49;;;;;;;0.00;0.00;;;5.30;99.90;;;;;;5052269;28;20067;-77
2021/10/14 05:08:14;;;;;;;0.45;0.38;;;5.30;99.90;;;;;;5052181;28;20099;-78
2021/10/14 05:10:41;;;;;;;0.52;0.52;;;5.30;99.90;;;;;;5052036;28;20056;-77
2021/10/14 05:13:07;;;;;;;0.00;0.00;;;5.30;99.90;;;;;;5052787;28;20048;-78
2021/10/14 05:15:33;;;;;;;0.00;0.00;;;5.30;99.90;;;;;;5052407;28;20511;-78
2021/10/14 05:17:58;;;;;;;0.00;0.00;;;5.30;99.90;;;;;;5050624;28;20021;-78
2021/10/14 05:20:24;;;;;;;0.10;0.10;;;5.40;99.90;;;;;;5052425;28;20084;-78
2021/10/14 05:22:49;;;;;;;0.47;0.47;;;5.40;99.90;;;;;;5052476;28;20048;-78
2021/10/14 05:25:15;;;;;;;0.15;0.15;;;5.40;99.90;;;;;;5051847;28;20474;-73
2021/10/14 05:27:41;;;;;;;0.00;0.00;;;5.40;99.90;;;;;;5052485;28;20492;-77
2021/10/14 05:30:07;;;;;;;0.47;0.10;;;5.50;99.90;;;;;;5052488;28;20028;-79
2021/10/14 05:32:33;;;;;;;1.80;0.15;;;5.50;99.90;;;;;;5052642;28;20025;-78
2021/10/14 05:34:59;;;;;;;0.00;0.00;;;5.60;99.90;;;;;;5052355;28;20035;-78
2021/10/14 05:37:29;;;;;;;0.00;0.00;;;5.60;99.90;;;;;;5051996;28;20388;-78
2021/10/14 05:39:55;;;;;;;0.00;0.00;;;5.70;99.90;;;;;;5050642;28;20480;-78
2021/10/14 05:42:20;;;;;;;0.00;0.00;;;5.70;99.90;;;;;;5050497;28;20028;-78
2021/10/14 05:44:46;;;;;;;0.08;0.08;;;5.70;99.90;;;;;;5053670;28;20480;-78
2021/10/14 05:47:12;;;;;;;0.00;0.00;;;5.70;99.90;;;;;;5052037;28;20029;-78
2021/10/14 05:49:37;;;;;;;0.00;0.00;;;5.70;99.90;;;;;;5051737;28;20037;-78
2021/10/14 05:52:04;;;;;;;0.00;0.00;;;5.70;99.90;;;;;;5051678;28;20025;-78
2021/10/14 05:54:30;;;;;;;0.00;0.00;;;5.60;99.90;;;;;;5052845;28;20029;-78
2021/10/14 05:56:55;;;;;;;0.00;0.00;;;5.60;99.90;;;;;;5054521;28;20025;-77
2021/10/14 05:59:21;;;;;;;1.85;0.73;;;5.60;99.90;;;;;;5054882;28;20496;-80
2021/10/14 06:01:46;;;;;;;0.00;0.00;;;5.60;99.90;;;;;;5057711;28;20012;-78
2021/10/14 06:04:12;;;;;;;0.00;0.00;;;5.60;99.90;;;;;;5071349;28;20016;-78
2021/10/14 06:06:38;;;;;;;0.00;0.00;;;5.60;99.90;;;;;;5066556;28;20024;-78
2021/10/14 06:09:03;;;;;;;0.05;0.03;;;5.50;99.90;;;;;;5055229;28;20090;-78
2021/10/14 06:11:29;;;;;;;0.00;0.00;;;5.50;99.90;;;;;;5056211;28;20024;-78
2021/10/14 06:13:55;;;;;;;0.10;0.10;;;5.50;99.90;;;;;;5074812;28;20161;-78
2021/10/14 06:16:20;;;;;;;0.00;0.00;;;5.50;99.90;;;;;;5064394;28;20108;-77
2021/10/14 06:18:46;;;;;;;0.00;0.00;;;5.50;99.90;;;;;;5053014;28;20495;-77
2021/10/14 06:21:12;;;;;;;0.00;0.00;;;5.50;99.90;;;;;;5045047;28;20048;-78
2021/10/14 06:23:37;;;;;;;0.00;0.00;;;5.50;99.90;;;;;;5050865;28;20077;-76
2021/10/14 06:26:03;;;;;;;0.00;0.00;;;5.60;99.90;;;;;;5049782;28;20373;-78
2021/10/14 06:28:29;;;;;;;0.00;0.00;;;5.60;99.90;;;;;;5057884;28;20111;-78
2021/10/14 06:30:54;;;;;;;0.00;0.00;;;5.60;99.90;;;;;;5053066;28;20083;-77
2021/10/14 06:33:20;;;;;;;0.00;0.00;;;5.60;99.90;;;;;;5052192;28;20039;-76
2021/10/14 06:35:46;;;;;;;0.00;0.00;;;5.60;99.90;;;;;;5049443;28;20079;-76
2021/10/14 06:38:12;;;;;;;0.00;0.00;;;5.60;99.90;;;;;;5055001;28;20086;-76
2021/10/14 06:40:37;;;;;;;0.00;0.00;;;5.60;99.90;;;;;;5052959;28;20028;-76
2021/10/14 06:43:03;;;;;;;0.32;0.32;;;5.60;99.90;;;;;;5064868;28;20024;-74
2021/10/14 06:45:29;;;;;;;1.45;0.55;;;5.60;99.90;;;;;;5057920;28;20025;-76
2021/10/14 06:47:55;;;;;;;0.00;0.00;;;5.60;99.90;;;;;;5053358;28;20063;-76
2021/10/14 06:50:21;;;;;;;0.00;0.00;;;5.60;99.90;;;;;;5053368;28;20021;-76
2021/10/14 06:52:46;;;;;;;0.00;0.00;;;5.70;99.90;;;;;;5052980;28;20089;-76
2021/10/14 06:55:12;;;;;;;0.00;0.00;;;5.70;99.90;;;;;;5062685;28;20542;-76
2021/10/14 06:57:38;;;;;;;0.00;0.00;;;5.70;99.90;;;;;;5055380;28;20025;-78
2021/10/14 07:00:06;;;;;;;0.00;0.00;;;5.70;99.90;;;;;;5050791;28;20090;-76
2021/10/14 07:02:31;;;;;;;0.40;0.40;;;5.80;99.90;;;;;;5051351;28;20033;-77
2021/10/14 07:04:57;;;;;;;0.20;0.08;;;5.90;99.90;;;;;;5056604;28;20021;-79
2021/10/14 07:07:23;;;;;;;0.00;0.00;;;6.00;99.90;;;;;;5051097;28;20111;-79
2021/10/14 07:09:48;;;;;;;0.10;0.10;;;6.00;99.90;;;;;;5056024;28;20017;-77
2021/10/14 07:12:15;;;;;;;0.70;0.65;;;6.10;99.90;;;;;;5058303;28;20045;-80
2021/10/14 07:14:42;;;;;;;0.28;0.20;;;6.20;99.90;;;;;;5049636;28;20021;-77
2021/10/14 07:17:08;;;;;;;0.00;0.00;;;6.30;99.90;;;;;;5053389;28;20384;-77
2021/10/14 07:19:35;;;;;;;0.55;0.32;;;6.40;99.90;;;;;;5044098;28;20036;-77
2021/10/14 07:22:01;;;;;;;0.10;0.10;;;6.50;99.90;;;;;;5051941;28;20465;-76
2021/10/14 07:24:28;;;;;;;0.38;0.38;;;6.50;99.90;;;;;;5058914;28;20028;-75
2021/10/14 07:26:53;;;;;;;0.00;0.00;;;6.70;99.90;;;;;;5054164;28;20029;-77
2021/10/14 07:29:19;;;;;;;0.03;0.03;;;6.80;99.90;;;;;;5061061;28;20033;-78
2021/10/14 07:31:45;;;;;;;0.00;0.00;;;7.00;99.90;;;;;;5055176;28;20029;-77
2021/10/14 07:34:11;;;;;;;0.00;0.00;;;7.30;99.90;;;;;;5054341;28;20032;-78
2021/10/14 07:36:36;;;;;;;0.10;0.10;;;8.30;99.90;;;;;;5050533;28;20037;-77
2021/10/14 07:39:03;;;;;;;0.20;0.20;;;10.40;99.90;;;;;;5052451;28;20496;-76
2021/10/14 07:41:29;;;;;;;0.00;0.00;;;11.40;99.90;;;;;;5050429;28;20151;-79
2021/10/14 07:43:55;;;;;;;0.00;0.00;;;10.40;99.90;;;;;;5054394;28;20096;-77
2021/10/14 07:46:21;;;;;;;0.00;0.00;;;9.60;99.90;;;;;;5044029;28;20142;-77
2021/10/14 07:48:47;;;;;;;0.10;0.10;;;9.80;99.90;;;;;;5051455;28;20511;-78
2021/10/14 07:51:14;;;;;;;0.00;0.00;;;9.50;99.90;;;;;;5052799;28;20029;-77
2021/10/14 07:53:40;;;;;;;0.00;0.00;;;9.30;99.90;;;;;;5048808;28;20035;-78
2021/10/14 07:56:05;;;;;;;0.20;0.20;;;9.00;99.90;;;;;;5049873;28;20032;-77
2021/10/14 07:58:32;;;;;;;0.20;0.13;;;8.90;99.90;;;;;;5048614;28;20021;-77
2021/10/14 08:00:57;;;;;;;0.32;0.32;;;8.80;99.90;;;;;;5048614;28;20103;-76
2021/10/14 08:03:23;;;;;;;0.08;0.08;;;8.80;99.90;;;;;;5040053;28;20440;-77
2021/10/14 08:05:49;;;;;;;0.93;0.90;;;8.90;99.90;;;;;;5052281;28;20500;-77
2021/10/14 08:08:15;;;;;;;0.00;0.00;;;9.00;99.90;;;;;;5050938;28;20037;-78
2021/10/14 08:10:41;;;;;;;1.95;0.20;;;9.10;99.90;;;;;;5051030;28;20515;-77
2021/10/14 08:13:13;;;;;;;0.00;0.00;;;9.30;99.90;;;;;;5052460;28;20029;-77
2021/10/14 08:15:44;;;;;;;0.00;0.00;;;9.60;99.90;;;;;;5054476;28;20035;-76
2021/10/14 08:18:10;;;;;;;1.55;0.25;;;9.90;99.90;;;;;;5050495;28;20464;-76
2021/10/14 08:20:35;;;;;;;0.00;0.00;;;10.30;99.90;;;;;;5056287;28;20116;-77
2021/10/14 08:23:02;;;;;;;0.00;0.00;;;11.00;99.90;;;;;;5054575;28;20021;-78
2021/10/14 08:25:28;;;;;;;0.00;0.00;;;11.40;99.90;;;;;;5054956;28;20131;-78
2021/10/14 08:27:54;;;;;;;1.15;1.08;;;11.90;99.90;;;;;;5052443;28;20427;-77
2021/10/14 08:30:19;;;;;;;0.17;0.17;;;12.20;99.90;;;;;;5062591;28;20036;-75
2021/10/14 08:32:46;;;;;;;0.00;0.00;;;11.90;99.90;;;;;;5052183;28;20101;-77
2021/10/14 08:35:13;;;;;;;0.10;0.10;;;11.90;99.90;;;;;;5050641;28;20531;-77
2021/10/14 08:37:39;;;;;;;0.00;0.00;;;12.10;99.90;;;;;;5049475;28;20046;-77
2021/10/14 08:40:05;;;;;;;0.10;0.10;;;12.20;99.90;;;;;;5049077;28;20344;-77
2021/10/14 08:42:31;;;;;;;0.00;0.00;;;12.30;99.90;;;;;;5049472;28;20047;-78
2021/10/14 08:45:04;;;;;;;0.05;0.03;;;12.50;99.90;;;;;;5055749;28;20116;-77
2021/10/14 08:47:30;;;;;;;0.00;0.00;;;12.70;99.90;;;;;;5056122;28;20484;-76
2021/10/14 08:49:57;;;;;;;0.00;0.00;;;13.00;99.90;;;;;;5059006;28;20400;-77
2021/10/14 08:52:23;;;;;;;1.25;0.43;;;13.40;99.90;;;;;;5055232;28;20048;-77
2021/10/14 08:54:48;;;;;;;0.55;0.55;;;13.60;99.90;;;;;;5051125;28;20467;-78
2021/10/14 08:57:14;;;;;;;0.15;0.13;;;13.80;99.70;;;;;;5045677;28;20044;-78
2021/10/14 08:59:40;;;;;;;0.05;0.05;;;14.10;98.80;;;;;;5050515;28;20053;-77
2021/10/14 09:02:09;;;;;;;0.10;0.00;;;14.30;98.20;;;;;;5058107;28;20040;-79
2021/10/14 09:04:55;;;;;;;1.02;0.30;;;15.00;97.80;;;;;;5054214;28;20056;-78
2021/10/14 09:07:23;;;;;;;1.75;0.85;;;16.00;95.90;;;;;;5054390;28;20025;-79
2021/10/14 09:09:49;;;;;;;0.00;0.00;;;16.00;95.10;;;;;;5053388;28;20025;-80
2021/10/14 09:12:17;;;;;;;0.10;0.10;;;15.90;95.40;;;;;;5052683;28;20025;-80
2021/10/14 09:14:58;;;;;;;0.43;0.38;;;16.10;95.40;;;;;;5055525;28;20033;-79
2021/10/14 09:18:02;;;;;;;0.17;0.10;;;17.50;93.10;;;;;;5051820;28;20029;-77
2021/10/14 09:20:33;;;;;;;0.68;0.40;;;19.30;91.00;;;;;;5060957;28;20062;-79
2021/10/14 09:23:11;;;;;;;0.82;0.68;;;20.20;88.30;;;;;;5049273;28;20115;-80
2021/10/14 09:25:46;;;;;;;6.03;0.35;;;20.40;86.50;;;;;;5051055;28;20030;-77
2021/10/14 09:28:26;;;;;;;0.05;0.05;;;20.00;85.80;;;;;;5052934;28;20025;-80
2021/10/14 09:30:51;;;;;;;0.17;0.17;;;19.80;84.90;;;;;;5052436;28;20061;-80
2021/10/14 09:33:37;;;;;;;0.03;0.00;;;18.90;86.50;;;;;;5055091;28;20099;-80
2021/10/14 09:36:15;;;;;;;0.10;0.10;;;17.60;90.60;;;;;;5059938;28;20036;-77
2021/10/14 09:38:44;;;;;;;0.03;0.03;;;16.40;91.60;;;;;;5055209;28;20029;-79
2021/10/14 09:41:12;;;;;;;0.20;0.00;;;15.90;92.90;;;;;;5055628;28;20070;-79
2021/10/14 09:43:40;;;;;;;0.00;0.00;;;15.50;92.60;;;;;;5055546;28;20101;-76
2021/10/14 09:46:05;;;;;;;0.00;0.00;;;15.30;93.30;;;;;;5055484;28;20025;-79
2021/10/14 09:48:31;;;;;;;14.60;1.15;;;15.10;94.00;;;;;;5054309;28;20040;-79
2021/10/14 09:50:57;;;;;;;0.00;0.00;;;15.00;93.70;;;;;;5055440;28;20029;-79
2021/10/14 09:53:25;;;;;;;0.00;0.00;;;15.00;94.30;;;;;;5053587;28;20112;-80
2021/10/14 09:55:59;;;;;;;0.10;0.10;;;14.90;94.10;;;;;;5053965;28;20021;-79
2021/10/14 09:58:25;;;;;;;0.28;0.28;;;14.90;94.20;;;;;;5042222;28;20028;-79
2021/10/14 10:00:52;;;;;;;0.65;0.65;;;14.90;94.20;;;;;;5059218;28;20119;-81
2021/10/14 10:03:20;;;;;;;0.10;0.10;;;14.90;94.30;;;;;;5053882;28;20036;-80
2021/10/14 10:05:52;;;;;;;0.00;0.00;;;14.90;94.40;;;;;;5059694;28;20036;-79
2021/10/14 10:08:40;;;;;;;0.10;0.03;;;14.90;94.20;;;;;;5056596;28;20036;-79
2021/10/14 10:11:08;;;;;;;0.00;0.00;;;14.80;94.80;;;;;;5053603;28;20071;-80
2021/10/14 10:13:39;;;;;;;0.10;0.10;;;14.80;95.00;;;;;;5054254;28;20029;-79
2021/10/14 10:16:19;;;;;;;4.03;1.58;;;15.00;95.30;;;;;;5053003;28;20040;-78
2021/10/14 10:18:56;;;;;;;0.03;0.00;;;15.10;94.40;;;;;;5054049;28;20025;-76
2021/10/14 10:21:31;;;;;;;0.00;0.00;;;15.10;94.50;;;;;;5069183;28;20048;-78
2021/10/14 10:23:57;;;;;;;1.17;0.35;;;15.10;94.70;;;;;;5070756;28;20041;-76
2021/10/14 10:26:35;;;;;;;0.20;0.15;;;15.20;94.40;;;;;;5054496;28;20040;-79
2021/10/14 10:29:12;;;;;;;0.00;0.00;;;15.30;94.90;;;;;;5053457;28;20029;-79
2021/10/14 10:31:51;;;;;;;0.00;0.00;;;15.30;94.20;;;;;;5054158;28;20021;-78
2021/10/14 10:34:48;;;;;;;0.10;0.10;;;15.20;94.60;;;;;;5054652;28;20046;-78
2021/10/14 10:40:09;;;;;;;0.08;0.08;;;15.40;94.30;;;;;;5051822;28;20121;-75
2021/10/14 10:42:53;;;;;;;0.10;0.00;;;15.40;94.30;;;;;;5051551;28;20412;-77
2021/10/14 10:45:18;;;;;;;2.00;0.30;;;15.50;95.00;;;;;;5048930;28;20071;-77
2021/10/14 10:48:05;;;;;;;0.00;0.00;;;15.50;94.10;;;;;;5053040;28;20033;-78
2021/10/14 10:50:34;;;;;;;0.00;0.00;;;15.60;94.10;;;;;;5052340;28;20033;-77
2021/10/14 10:53:23;;;;;;;0.00;0.00;;;15.80;95.40;;;;;;5047669;28;20021;-76
2021/10/14 10:56:01;;;;;;;0.25;0.17;;;16.00;93.80;;;;;;5053099;28;20036;-77
2021/10/14 10:58:47;;;;;;;6.22;0.10;;;15.90;93.10;;;;;;5050112;28;20104;-77
2021/10/14 11:01:18;;;;;;;1.45;0.47;;;16.00;93.40;;;;;;5052582;28;20024;-77
2021/10/14 11:04:01;;;;;;;0.00;0.00;;;16.10;93.80;;;;;;5044022;28;20396;-76
2021/10/14 11:06:29;;;;;;;3.60;1.60;;;16.30;92.90;;;;;;5054856;28;20093;-77
2021/10/14 11:09:06;;;;;;;0.32;0.32;;;16.40;92.60;;;;;;5049618;28;20503;-77
2021/10/14 11:11:36;;;;;;;0.80;0.80;;;16.50;93.10;;;;;;5053870;28;20650;-78
2021/10/14 11:14:02;;;;;;;0.05;0.05;;;16.50;92.80;;;;;;5055286;28;20045;-78
2021/10/14 11:16:30;;;;;;;0.00;0.00;;;16.50;92.20;;;;;;5053460;28;20480;-77
2021/10/14 11:18:58;;;;;;;0.00;0.00;;;16.70;92.50;;;;;;5050650;28;20120;-76
2021/10/14 11:21:25;;;;;;;0.93;0.60;;;16.70;92.00;;;;;;5054145;28;20028;-77
2021/10/14 11:23:53;;;;;;;0.00;0.00;;;16.80;91.60;;;;;;5051784;28;20107;-76
2021/10/14 11:26:23;;;;;;;0.10;0.10;;;16.60;91.40;;;;;;5054057;28;20044;-77
2021/10/14 11:28:56;;;;;;;0.30;0.10;;;16.80;91.20;;;;;;5050648;28;20041;-77
2021/10/14 11:31:31;;;;;;;0.10;0.10;;;17.00;90.50;;;;;;5056518;28;20025;-78
2021/10/14 11:34:24;;;;;;;0.00;0.00;;;17.20;90.60;;;;;;5046595;28;20021;-77
2021/10/14 11:36:59;;;;;;;0.10;0.10;;;17.10;90.40;;;;;;5057418;28;20037;-78
2021/10/14 11:39:40;;;;;;;0.00;0.00;;;17.10;90.70;;;;;;5057609;28;20044;-78
2021/10/14 11:42:09;;;;;;;0.22;0.20;;;17.10;90.50;;;;;;5054611;28;20017;-77
2021/10/14 11:44:38;;;;;;;0.00;0.00;;;17.00;88.90;;;;;;5048643;28;20044;-77
2021/10/14 11:47:06;;;;;;;0.08;0.08;;;17.00;89.90;;;;;;5053993;28;20060;-78
2021/10/14 11:49:32;;;;;;;0.00;0.00;;;17.00;88.90;;;;;;5062107;28;20033;-78
2021/10/14 11:52:04;;;;;;;0.00;0.00;;;17.00;88.20;;;;;;5051054;28;20043;-77
2021/10/14 11:54:32;;;;;;;0.32;0.32;;;17.20;89.00;;;;;;5050745;28;20519;-77
2021/10/14 11:56:58;;;;;;;0.20;0.00;;;17.30;89.90;;;;;;5051470;28;20657;-77
2021/10/14 11:59:27;;;;;;;0.40;0.40;;;17.50;90.00;;;;;;5046580;28;20581;-78
2021/10/14 12:01:58;;;;;;;0.03;0.00;;;17.40;90.00;;;;;;5047226;28;20044;-77
2021/10/14 12:04:30;;;;;;;0.00;0.00;;;17.50;88.70;;;;;;5050609;28;20096;-77
2021/10/14 12:06:57;;;;;;;0.00;0.00;;;17.40;88.40;;;;;;5049156;28;20055;-77
2021/10/14 12:09:24;;;;;;;0.00;0.00;;;17.50;90.00;;;;;;5049282;28;20128;-77
2021/10/14 12:11:57;;;;;;;0.00;0.00;;;17.60;88.60;;;;;;5046595;28;20021;-77
2021/10/14 12:14:25;;;;;;;0.00;0.00;;;17.70;91.10;;;;;;5043427;28;20037;-77
2021/10/14 12:17:24;;;;;;;0.20;0.15;;;17.70;86.70;;;;;;5050975;28;20071;-78
2021/10/14 12:19:52;;;;;;;0.00;0.00;;;17.50;88.50;;;;;;5049143;28;20040;-77
2021/10/14 12:22:23;;;;;;;0.10;0.00;;;17.40;88.90;;;;;;5049232;28;20441;-77
2021/10/14 12:25:00;;;;;;;0.10;0.10;;;17.60;89.50;;;;;;5046905;28;20040;-77
2021/10/14 12:27:46;;;;;;;0.47;0.47;;;17.80;87.90;;;;;;5051371;28;20064;-77
2021/10/14 12:30:28;;;;;;;0.10;0.00;;;18.00;90.10;;;;;;5051491;28;20106;-77
2021/10/14 12:33:10;;;;;;;1.48;0.57;;;18.20;88.40;;;;;;5042629;28;20028;-76
2021/10/14 12:35:38;;;;;;;0.00;0.00;;;18.00;87.30;;;;;;5047609;28;20696;-76
2021/10/14 12:38:14;;;;;;;0.00;0.00;;;18.10;89.80;;;;;;5054306;28;20060;-76
2021/10/14 12:40:46;;;;;;;0.00;0.00;;;18.30;88.00;;;;;;5056460;28;20029;-77
2021/10/14 12:43:21;;;;;;;0.00;0.00;;;18.40;87.30;;;;;;5051134;28;20039;-78
2021/10/14 12:48:21;;;;;;;0.00;0.00;;;18.70;86.10;;;;;;5054547;28;20092;-78
2021/10/14 12:53:53;;;;;;;0.00;0.00;;;19.30;87.30;;;;;;5053827;28;20037;-78
2021/10/14 12:56:19;;;;;;;0.00;0.00;;;19.10;84.50;;;;;;5043779;28;20739;-77
2021/10/14 12:58:46;;;;;;;8.38;0.22;;;18.90;85.10;;;;;;5051996;28;20043;-76
2021/10/14 13:01:17;;;;;;;0.00;0.00;;;19.10;88.90;;;;;;5052278;28;20024;-76
2021/10/14 13:03:43;;;;;;;0.00;0.00;;;19.30;83.00;;;;;;5051330;28;20024;-77
2021/10/14 13:06:09;;;;;;;1.20;0.20;;;19.30;84.70;;;;;;5049084;28;20017;-78